VLG3BC GCXO-LEZL
Flight info
| Callsign | VLG3BC |
|---|---|
| Flight time | 1h 54m |
| Altitude | 36000 |
| Route | VASTO UN858 AKUDA DCT PESAS N858 OSLEP |
| Aircraft | A320/M-SDE3FGHIRWY/LB1 |
Departure
| Time | 2026-04-28 03:05 |
|---|---|
| Airport | Tenerife Norte-Ciudad de La Laguna Airport (GCXO) |
Arrival
| Time | 2026-04-28 05:00 |
|---|---|
| Airport | Seville Airport (LEZL) |
| Time | Latitude | Longitude | Altitude | Speed | Heading |
|---|---|---|---|---|---|
| 2026-04-28 02:23 | 28.48620 | -16.34476 | 2064 ft | 0 kts | 21° |
| 2026-04-28 02:54 | 28.48608 | -16.34481 | 2064 ft | 4 kts | 21° |
| 2026-04-28 02:54 | 28.48583 | -16.34492 | 2064 ft | 4 kts | 21° |
| 2026-04-28 02:54 | 28.48558 | -16.34503 | 2064 ft | 4 kts | 21° |
| 2026-04-28 02:54 | 28.48537 | -16.34512 | 2064 ft | 2 kts | 21° |
| 2026-04-28 02:55 | 28.48515 | -16.34525 | 2064 ft | 4 kts | 59° |
| 2026-04-28 02:55 | 28.48513 | -16.34548 | 2066 ft | 3 kts | 110° |
| 2026-04-28 02:55 | 28.48519 | -16.34566 | 2067 ft | 1 kts | 110° |
| 2026-04-28 02:57 | 28.48515 | -16.34555 | 2066 ft | 5 kts | 110° |
| 2026-04-28 02:58 | 28.48488 | -16.34474 | 2062 ft | 17 kts | 110° |
| 2026-04-28 02:58 | 28.48454 | -16.34371 | 2058 ft | 8 kts | 112° |
| 2026-04-28 02:58 | 28.48431 | -16.34305 | 2055 ft | 10 kts | 110° |
| 2026-04-28 02:58 | 28.48406 | -16.34227 | 2052 ft | 11 kts | 109° |
| 2026-04-28 02:59 | 28.48377 | -16.34138 | 2048 ft | 10 kts | 111° |
| 2026-04-28 02:59 | 28.48351 | -16.34059 | 2045 ft | 12 kts | 110° |
| 2026-04-28 02:59 | 28.48321 | -16.33967 | 2041 ft | 13 kts | 111° |
| 2026-04-28 02:59 | 28.48288 | -16.33870 | 2043 ft | 13 kts | 111° |
| 2026-04-28 03:00 | 28.48257 | -16.33776 | 2040 ft | 13 kts | 110° |
| 2026-04-28 03:00 | 28.48227 | -16.33684 | 2038 ft | 12 kts | 110° |
| 2026-04-28 03:00 | 28.48198 | -16.33599 | 2039 ft | 11 kts | 111° |
| 2026-04-28 03:00 | 28.48170 | -16.33517 | 2039 ft | 11 kts | 110° |
| 2026-04-28 03:01 | 28.48145 | -16.33440 | 2038 ft | 10 kts | 110° |
| 2026-04-28 03:01 | 28.48116 | -16.33350 | 2038 ft | 15 kts | 111° |
| 2026-04-28 03:01 | 28.48072 | -16.33218 | 2036 ft | 21 kts | 110° |
| 2026-04-28 03:01 | 28.48017 | -16.33050 | 2026 ft | 23 kts | 110° |
| 2026-04-28 03:02 | 28.47960 | -16.32881 | 2017 ft | 23 kts | 111° |
| 2026-04-28 03:02 | 28.47907 | -16.32720 | 2014 ft | 20 kts | 111° |
| 2026-04-28 03:02 | 28.47861 | -16.32600 | 2011 ft | 16 kts | 126° |
| 2026-04-28 03:02 | 28.47797 | -16.32540 | 2013 ft | 7 kts | 168° |
| 2026-04-28 03:03 | 28.47763 | -16.32540 | 2015 ft | 3 kts | 196° |
| 2026-04-28 03:03 | 28.47746 | -16.32548 | 2014 ft | 4 kts | 202° |
| 2026-04-28 03:03 | 28.47741 | -16.32555 | 2012 ft | 0 kts | 246° |
| 2026-04-28 03:03 | 28.47742 | -16.32571 | 2016 ft | 3 kts | 278° |
| 2026-04-28 03:04 | 28.47745 | -16.32583 | 2014 ft | 0 kts | 291° |
| 2026-04-28 03:04 | 28.47746 | -16.32586 | 2014 ft | 3 kts | 291° |
| 2026-04-28 03:04 | 28.47822 | -16.32814 | 2020 ft | 65 kts | 290° |
| 2026-04-28 03:05 | 28.48055 | -16.33518 | 2042 ft | 122 kts | 291° |
| 2026-04-28 03:05 | 28.48411 | -16.34573 | 2192 ft | 155 kts | 291° |
| 2026-04-28 03:05 | 28.48812 | -16.35716 | 2876 ft | 155 kts | 293° |
| 2026-04-28 03:05 | 28.49218 | -16.36875 | 3415 ft | 166 kts | 292° |
| 2026-04-28 03:06 | 28.49681 | -16.38197 | 3664 ft | 189 kts | 292° |
| 2026-04-28 03:06 | 28.50187 | -16.39644 | 3890 ft | 211 kts | 292° |
| 2026-04-28 03:06 | 28.50757 | -16.41283 | 4152 ft | 235 kts | 292° |
| 2026-04-28 03:06 | 28.51388 | -16.43101 | 4551 ft | 258 kts | 292° |
| 2026-04-28 03:07 | 28.52059 | -16.45041 | 5236 ft | 267 kts | 293° |
| 2026-04-28 03:07 | 28.52742 | -16.47025 | 6040 ft | 272 kts | 294° |
| 2026-04-28 03:07 | 28.53436 | -16.49040 | 6864 ft | 275 kts | 293° |
| 2026-04-28 03:07 | 28.54147 | -16.51070 | 7668 ft | 277 kts | 296° |
| 2026-04-28 03:08 | 28.55233 | -16.52868 | 8471 ft | 278 kts | 317° |
| 2026-04-28 03:08 | 28.56821 | -16.54114 | 9278 ft | 280 kts | 336° |
| 2026-04-28 03:08 | 28.58721 | -16.54637 | 10058 ft | 285 kts | 356° |
| 2026-04-28 03:08 | 28.60696 | -16.54331 | 10752 ft | 292 kts | 18° |
| 2026-04-28 03:09 | 28.62489 | -16.53165 | 11223 ft | 310 kts | 41° |
| 2026-04-28 03:09 | 28.63745 | -16.51071 | 11434 ft | 337 kts | 69° |
| 2026-04-28 03:09 | 28.63997 | -16.48377 | 11860 ft | 353 kts | 98° |
| 2026-04-28 03:09 | 28.63201 | -16.45715 | 12473 ft | 360 kts | 114° |
| 2026-04-28 03:10 | 28.62103 | -16.43136 | 13143 ft | 364 kts | 118° |
| 2026-04-28 03:10 | 28.60823 | -16.40630 | 13812 ft | 368 kts | 121° |
| 2026-04-28 03:10 | 28.59481 | -16.38175 | 14399 ft | 372 kts | 122° |
| 2026-04-28 03:10 | 28.58107 | -16.35664 | 14998 ft | 375 kts | 121° |
| 2026-04-28 03:11 | 28.56755 | -16.33108 | 15604 ft | 379 kts | 120° |
| 2026-04-28 03:11 | 28.55516 | -16.30451 | 16203 ft | 382 kts | 111° |
| 2026-04-28 03:11 | 28.54779 | -16.27544 | 16765 ft | 384 kts | 98° |
| 2026-04-28 03:11 | 28.54604 | -16.24510 | 17333 ft | 387 kts | 86° |
| 2026-04-28 03:12 | 28.54988 | -16.21475 | 17911 ft | 389 kts | 74° |
| 2026-04-28 03:12 | 28.55708 | -16.18494 | 18484 ft | 392 kts | 73° |
| 2026-04-28 03:12 | 28.56430 | -16.15492 | 18990 ft | 395 kts | 73° |
| 2026-04-28 03:12 | 28.57151 | -16.12460 | 19481 ft | 398 kts | 73° |
| 2026-04-28 03:13 | 28.57872 | -16.09404 | 19947 ft | 402 kts | 73° |
| 2026-04-28 03:13 | 28.58600 | -16.06315 | 20416 ft | 406 kts | 73° |
| 2026-04-28 03:13 | 28.59333 | -16.03200 | 20869 ft | 409 kts | 73° |
| 2026-04-28 03:13 | 28.60074 | -16.00056 | 21320 ft | 413 kts | 73° |
| 2026-04-28 03:14 | 28.60825 | -15.96889 | 21763 ft | 417 kts | 73° |
| 2026-04-28 03:14 | 28.61585 | -15.93695 | 22199 ft | 420 kts | 73° |
| 2026-04-28 03:14 | 28.62350 | -15.90475 | 22630 ft | 424 kts | 72° |
| 2026-04-28 03:14 | 28.63121 | -15.87222 | 23046 ft | 427 kts | 72° |
| 2026-04-28 03:15 | 28.63885 | -15.83990 | 23465 ft | 431 kts | 72° |
| 2026-04-28 03:15 | 28.64666 | -15.80683 | 23834 ft | 434 kts | 72° |
| 2026-04-28 03:15 | 28.65451 | -15.77354 | 24182 ft | 437 kts | 72° |
| 2026-04-28 03:15 | 28.66241 | -15.74003 | 24534 ft | 440 kts | 72° |
| 2026-04-28 03:16 | 28.67035 | -15.70627 | 24865 ft | 443 kts | 72° |
| 2026-04-28 03:16 | 28.67830 | -15.67231 | 25201 ft | 446 kts | 72° |
| 2026-04-28 03:16 | 28.68628 | -15.63813 | 25549 ft | 448 kts | 72° |
| 2026-04-28 03:16 | 28.69433 | -15.60370 | 25872 ft | 451 kts | 72° |
| 2026-04-28 03:17 | 28.70243 | -15.56906 | 26201 ft | 454 kts | 72° |
| 2026-04-28 03:17 | 28.71876 | -15.49914 | 26837 ft | 459 kts | 72° |
| 2026-04-28 03:17 | 28.72698 | -15.46386 | 27153 ft | 462 kts | 72° |
| 2026-04-28 03:18 | 28.73525 | -15.42843 | 27465 ft | 465 kts | 72° |
| 2026-04-28 03:18 | 28.74387 | -15.39282 | 27769 ft | 466 kts | 68° |
| 2026-04-28 03:18 | 28.75774 | -15.35985 | 28060 ft | 460 kts | 52° |
| 2026-04-28 03:18 | 28.77827 | -15.33229 | 28350 ft | 453 kts | 37° |
| 2026-04-28 03:19 | 28.80199 | -15.30855 | 28646 ft | 455 kts | 36° |
| 2026-04-28 03:19 | 28.82590 | -15.28486 | 28957 ft | 457 kts | 36° |
| 2026-04-28 03:19 | 28.84968 | -15.26137 | 29260 ft | 459 kts | 36° |
| 2026-04-28 03:19 | 28.87389 | -15.23744 | 29560 ft | 461 kts | 36° |
| 2026-04-28 03:20 | 28.89816 | -15.21334 | 29854 ft | 464 kts | 36° |
| 2026-04-28 03:20 | 28.92251 | -15.18909 | 30128 ft | 466 kts | 36° |
| 2026-04-28 03:20 | 28.94694 | -15.16469 | 30363 ft | 468 kts | 36° |
| 2026-04-28 03:20 | 28.97146 | -15.14018 | 30624 ft | 469 kts | 36° |
| 2026-04-28 03:21 | 28.99608 | -15.11556 | 30872 ft | 471 kts | 36° |
| 2026-04-28 03:21 | 29.02076 | -15.09089 | 31091 ft | 472 kts | 36° |
| 2026-04-28 03:21 | 29.04549 | -15.06614 | 31400 ft | 472 kts | 36° |
| 2026-04-28 03:21 | 29.07014 | -15.04147 | 31707 ft | 472 kts | 36° |
| 2026-04-28 03:22 | 29.09483 | -15.01677 | 32016 ft | 471 kts | 35° |
| 2026-04-28 03:22 | 29.11953 | -14.99207 | 32312 ft | 471 kts | 35° |
| 2026-04-28 03:22 | 29.14421 | -14.96737 | 32612 ft | 471 kts | 35° |
| 2026-04-28 03:22 | 29.16886 | -14.94268 | 32918 ft | 471 kts | 35° |
| 2026-04-28 03:23 | 29.19353 | -14.91796 | 33228 ft | 471 kts | 36° |
| 2026-04-28 03:23 | 29.21816 | -14.89326 | 33542 ft | 471 kts | 36° |
| 2026-04-28 03:23 | 29.24279 | -14.86850 | 33846 ft | 471 kts | 36° |
| 2026-04-28 03:23 | 29.26739 | -14.84373 | 34136 ft | 470 kts | 36° |
| 2026-04-28 03:24 | 29.29193 | -14.81901 | 34442 ft | 469 kts | 36° |
| 2026-04-28 03:24 | 29.31603 | -14.79472 | 34779 ft | 466 kts | 36° |
| 2026-04-28 03:24 | 29.34035 | -14.77020 | 35070 ft | 465 kts | 36° |
| 2026-04-28 03:24 | 29.36460 | -14.74577 | 35331 ft | 464 kts | 36° |
| 2026-04-28 03:25 | 29.38878 | -14.72139 | 35585 ft | 463 kts | 36° |
| 2026-04-28 03:25 | 29.41295 | -14.69699 | 35826 ft | 462 kts | 36° |
| 2026-04-28 03:25 | 29.43709 | -14.67260 | 36009 ft | 462 kts | 36° |
| 2026-04-28 03:25 | 29.46111 | -14.64828 | 36062 ft | 460 kts | 36° |
| 2026-04-28 03:26 | 29.50892 | -14.59983 | 36057 ft | 458 kts | 36° |
| 2026-04-28 03:26 | 29.55664 | -14.55151 | 36056 ft | 458 kts | 36° |
| 2026-04-28 03:27 | 29.60439 | -14.50311 | 36081 ft | 458 kts | 36° |
| 2026-04-28 03:27 | 29.65176 | -14.45509 | 36063 ft | 457 kts | 36° |
| 2026-04-28 03:28 | 29.69936 | -14.40669 | 36055 ft | 457 kts | 36° |
| 2026-04-28 03:28 | 29.74690 | -14.35822 | 36050 ft | 456 kts | 36° |
| 2026-04-28 03:29 | 29.79445 | -14.30979 | 36045 ft | 456 kts | 36° |
| 2026-04-28 03:29 | 29.84196 | -14.26138 | 36046 ft | 456 kts | 36° |
| 2026-04-28 03:30 | 29.88940 | -14.21280 | 36051 ft | 456 kts | 36° |
| 2026-04-28 03:30 | 29.93662 | -14.16449 | 36046 ft | 457 kts | 36° |
| 2026-04-28 03:31 | 29.98417 | -14.11578 | 36043 ft | 457 kts | 36° |
| 2026-04-28 03:31 | 30.03166 | -14.06695 | 36038 ft | 457 kts | 36° |
| 2026-04-28 03:32 | 30.07917 | -14.01811 | 36037 ft | 457 kts | 36° |
| 2026-04-28 03:32 | 30.12665 | -13.96923 | 36037 ft | 457 kts | 36° |
| 2026-04-28 03:33 | 30.17421 | -13.92028 | 36035 ft | 457 kts | 36° |
| 2026-04-28 03:33 | 30.22137 | -13.87163 | 36059 ft | 458 kts | 37° |
| 2026-04-28 03:34 | 30.26881 | -13.82258 | 36062 ft | 457 kts | 37° |
| 2026-04-28 03:34 | 30.31620 | -13.77349 | 36040 ft | 457 kts | 37° |
| 2026-04-28 03:35 | 30.36361 | -13.72441 | 36042 ft | 457 kts | 37° |
| 2026-04-28 03:35 | 30.41096 | -13.67528 | 36036 ft | 457 kts | 37° |
| 2026-04-28 03:36 | 30.45831 | -13.62609 | 36025 ft | 457 kts | 37° |
| 2026-04-28 03:36 | 30.50541 | -13.57725 | 36027 ft | 456 kts | 34° |
| 2026-04-28 03:37 | 30.55675 | -13.53520 | 36053 ft | 451 kts | 29° |
| 2026-04-28 03:37 | 30.60856 | -13.49414 | 36051 ft | 451 kts | 29° |
| 2026-04-28 03:38 | 30.66028 | -13.45287 | 36038 ft | 451 kts | 29° |
| 2026-04-28 03:38 | 30.71200 | -13.41150 | 36028 ft | 451 kts | 29° |
| 2026-04-28 03:39 | 30.76377 | -13.37017 | 36024 ft | 451 kts | 29° |
| 2026-04-28 03:39 | 30.81553 | -13.32882 | 36017 ft | 452 kts | 29° |
| 2026-04-28 03:40 | 30.86697 | -13.28772 | 36039 ft | 452 kts | 29° |
| 2026-04-28 03:40 | 30.91868 | -13.24618 | 36038 ft | 452 kts | 29° |
| 2026-04-28 03:41 | 30.97049 | -13.20486 | 36017 ft | 451 kts | 28° |
| 2026-04-28 03:41 | 31.02241 | -13.16370 | 36013 ft | 451 kts | 28° |
| 2026-04-28 03:42 | 31.07424 | -13.12251 | 36025 ft | 451 kts | 29° |
| 2026-04-28 03:42 | 31.12614 | -13.08114 | 36017 ft | 452 kts | 29° |
| 2026-04-28 03:43 | 31.17800 | -13.03969 | 36024 ft | 451 kts | 30° |
| 2026-04-28 03:43 | 31.22105 | -13.00527 | 36020 ft | 451 kts | 30° |
| 2026-04-28 03:44 | 31.28156 | -12.95687 | 36015 ft | 451 kts | 30° |
| 2026-04-28 03:44 | 31.33296 | -12.91569 | 36006 ft | 451 kts | 30° |
| 2026-04-28 03:45 | 31.38465 | -12.87421 | 36003 ft | 450 kts | 30° |
| 2026-04-28 03:45 | 31.43634 | -12.83274 | 36014 ft | 450 kts | 30° |
| 2026-04-28 03:46 | 31.48797 | -12.79113 | 36014 ft | 450 kts | 30° |
| 2026-04-28 03:46 | 31.53956 | -12.74956 | 36013 ft | 450 kts | 31° |
| 2026-04-28 03:47 | 31.59111 | -12.70798 | 36003 ft | 450 kts | 31° |
| 2026-04-28 03:47 | 31.64228 | -12.66661 | 36005 ft | 450 kts | 31° |
| 2026-04-28 03:48 | 31.69379 | -12.62502 | 35992 ft | 450 kts | 31° |
| 2026-04-28 03:48 | 31.74535 | -12.58334 | 36006 ft | 449 kts | 31° |
| 2026-04-28 03:49 | 31.78808 | -12.54867 | 35999 ft | 449 kts | 31° |
| 2026-04-28 03:49 | 31.83948 | -12.50682 | 35997 ft | 449 kts | 31° |
| 2026-04-28 03:50 | 31.89085 | -12.46507 | 35989 ft | 449 kts | 31° |
| 2026-04-28 03:50 | 31.94217 | -12.42324 | 35986 ft | 449 kts | 31° |
| 2026-04-28 03:51 | 31.99351 | -12.38136 | 35990 ft | 449 kts | 32° |
| 2026-04-28 03:51 | 32.04493 | -12.33952 | 35994 ft | 449 kts | 32° |
| 2026-04-28 03:52 | 32.09634 | -12.29764 | 35986 ft | 449 kts | 32° |
| 2026-04-28 03:52 | 32.14740 | -12.25602 | 35983 ft | 449 kts | 32° |
| 2026-04-28 03:53 | 32.19886 | -12.21412 | 35981 ft | 449 kts | 32° |
| 2026-04-28 03:53 | 32.25025 | -12.17214 | 35977 ft | 449 kts | 32° |
| 2026-04-28 03:54 | 32.30159 | -12.13005 | 35978 ft | 449 kts | 32° |
| 2026-04-28 03:54 | 32.35290 | -12.08787 | 35994 ft | 449 kts | 32° |
| 2026-04-28 03:55 | 32.40382 | -12.04607 | 35990 ft | 448 kts | 32° |
| 2026-04-28 03:55 | 32.45510 | -12.00392 | 35976 ft | 449 kts | 32° |
| 2026-04-28 03:56 | 32.50640 | -11.96169 | 35974 ft | 449 kts | 32° |
| 2026-04-28 03:56 | 32.55773 | -11.91936 | 35972 ft | 450 kts | 32° |
| 2026-04-28 03:57 | 32.60903 | -11.87688 | 35983 ft | 450 kts | 33° |
| 2026-04-28 03:57 | 32.66031 | -11.83442 | 35982 ft | 450 kts | 33° |
| 2026-04-28 03:58 | 32.71158 | -11.79189 | 35980 ft | 449 kts | 33° |
| 2026-04-28 03:58 | 32.76246 | -11.74970 | 35973 ft | 449 kts | 33° |
| 2026-04-28 03:59 | 32.81370 | -11.70719 | 35972 ft | 449 kts | 33° |
| 2026-04-28 03:59 | 32.86492 | -11.66463 | 35971 ft | 449 kts | 33° |
| 2026-04-28 04:00 | 32.91612 | -11.62203 | 35971 ft | 449 kts | 33° |
| 2026-04-28 04:00 | 32.96725 | -11.57928 | 35968 ft | 449 kts | 33° |
| 2026-04-28 04:01 | 33.01834 | -11.53642 | 35968 ft | 449 kts | 33° |
| 2026-04-28 04:01 | 33.06919 | -11.49398 | 35967 ft | 449 kts | 33° |
| 2026-04-28 04:02 | 33.12032 | -11.45126 | 35967 ft | 449 kts | 33° |
| 2026-04-28 04:02 | 33.17136 | -11.40828 | 35974 ft | 449 kts | 33° |
| 2026-04-28 04:03 | 33.22237 | -11.36518 | 35970 ft | 449 kts | 33° |
| 2026-04-28 04:03 | 33.27325 | -11.32199 | 35973 ft | 449 kts | 33° |
| 2026-04-28 04:04 | 33.32419 | -11.27873 | 35959 ft | 450 kts | 34° |
| 2026-04-28 04:04 | 33.37523 | -11.23536 | 35954 ft | 450 kts | 34° |
| 2026-04-28 04:05 | 33.42633 | -11.19185 | 35948 ft | 451 kts | 34° |
| 2026-04-28 04:05 | 33.47713 | -11.14859 | 35952 ft | 451 kts | 34° |
| 2026-04-28 04:06 | 33.52821 | -11.10488 | 35955 ft | 451 kts | 34° |
| 2026-04-28 04:06 | 33.57933 | -11.06120 | 35955 ft | 451 kts | 34° |
| 2026-04-28 04:07 | 33.63044 | -11.01737 | 35948 ft | 451 kts | 34° |
| 2026-04-28 04:07 | 33.68148 | -10.97354 | 35946 ft | 451 kts | 34° |
| 2026-04-28 04:08 | 33.73262 | -10.92964 | 35953 ft | 452 kts | 35° |
| 2026-04-28 04:08 | 33.78370 | -10.88567 | 35949 ft | 452 kts | 35° |
| 2026-04-28 04:09 | 33.83481 | -10.84165 | 35942 ft | 452 kts | 35° |
| 2026-04-28 04:09 | 33.88589 | -10.79753 | 35938 ft | 452 kts | 35° |
| 2026-04-28 04:10 | 33.93667 | -10.75366 | 35936 ft | 452 kts | 35° |
| 2026-04-28 04:10 | 33.98773 | -10.70942 | 35935 ft | 452 kts | 35° |
| 2026-04-28 04:11 | 34.03886 | -10.66510 | 35939 ft | 452 kts | 35° |
| 2026-04-28 04:11 | 34.08984 | -10.62062 | 35938 ft | 452 kts | 35° |
| 2026-04-28 04:12 | 34.14092 | -10.57627 | 35938 ft | 452 kts | 35° |
| 2026-04-28 04:12 | 34.19198 | -10.53195 | 35931 ft | 452 kts | 35° |
| 2026-04-28 04:13 | 34.24264 | -10.48785 | 35931 ft | 452 kts | 35° |
| 2026-04-28 04:13 | 34.29352 | -10.44335 | 35941 ft | 452 kts | 35° |
| 2026-04-28 04:14 | 34.34444 | -10.39883 | 35934 ft | 451 kts | 35° |
| 2026-04-28 04:14 | 34.39528 | -10.35421 | 35931 ft | 451 kts | 35° |
| 2026-04-28 04:15 | 34.44610 | -10.30964 | 35928 ft | 451 kts | 35° |
| 2026-04-28 04:16 | 34.52225 | -10.24265 | 35922 ft | 451 kts | 35° |
| 2026-04-28 04:16 | 34.57271 | -10.19831 | 35916 ft | 451 kts | 36° |
| 2026-04-28 04:17 | 34.62345 | -10.15356 | 35914 ft | 451 kts | 36° |
| 2026-04-28 04:17 | 34.67432 | -10.10878 | 35912 ft | 451 kts | 35° |
| 2026-04-28 04:18 | 34.72521 | -10.06411 | 35912 ft | 451 kts | 35° |
| 2026-04-28 04:18 | 34.77604 | -10.01932 | 35913 ft | 451 kts | 36° |
| 2026-04-28 04:19 | 34.82696 | -9.97446 | 35910 ft | 451 kts | 36° |
| 2026-04-28 04:19 | 34.87782 | -9.92952 | 35905 ft | 452 kts | 36° |
| 2026-04-28 04:20 | 34.92835 | -9.88486 | 35913 ft | 452 kts | 36° |
| 2026-04-28 04:20 | 34.97915 | -9.83974 | 35914 ft | 454 kts | 36° |
| 2026-04-28 04:21 | 35.03087 | -9.79381 | 35916 ft | 465 kts | 36° |
| 2026-04-28 04:21 | 35.08376 | -9.74678 | 35915 ft | 474 kts | 36° |
| 2026-04-28 04:22 | 35.13717 | -9.69922 | 35912 ft | 475 kts | 36° |
| 2026-04-28 04:22 | 35.19069 | -9.65155 | 35909 ft | 476 kts | 36° |
| 2026-04-28 04:23 | 35.24413 | -9.60380 | 35908 ft | 476 kts | 36° |
| 2026-04-28 04:23 | 35.29757 | -9.55595 | 35908 ft | 476 kts | 36° |
| 2026-04-28 04:24 | 35.35097 | -9.50806 | 35905 ft | 476 kts | 36° |
| 2026-04-28 04:24 | 35.40395 | -9.46045 | 35905 ft | 476 kts | 36° |
| 2026-04-28 04:25 | 35.45736 | -9.41244 | 35901 ft | 476 kts | 36° |
| 2026-04-28 04:25 | 35.51079 | -9.36431 | 35896 ft | 476 kts | 36° |
| 2026-04-28 04:26 | 35.56413 | -9.31608 | 35896 ft | 476 kts | 36° |
| 2026-04-28 04:26 | 35.61746 | -9.26787 | 35902 ft | 476 kts | 36° |
| 2026-04-28 04:27 | 35.67084 | -9.21954 | 35897 ft | 476 kts | 36° |
| 2026-04-28 04:27 | 35.72410 | -9.17120 | 35897 ft | 476 kts | 36° |
| 2026-04-28 04:28 | 35.77744 | -9.12281 | 35898 ft | 476 kts | 36° |
| 2026-04-28 04:28 | 35.83077 | -9.07430 | 35893 ft | 476 kts | 36° |
| 2026-04-28 04:29 | 35.88404 | -9.02568 | 35892 ft | 477 kts | 36° |
| 2026-04-28 04:29 | 35.93700 | -8.97727 | 35887 ft | 477 kts | 36° |
| 2026-04-28 04:30 | 35.98608 | -8.92222 | 35877 ft | 477 kts | 50° |
| 2026-04-28 04:30 | 36.02935 | -8.85997 | 35881 ft | 478 kts | 50° |
| 2026-04-28 04:31 | 36.07285 | -8.79774 | 35886 ft | 479 kts | 50° |
| 2026-04-28 04:31 | 36.11632 | -8.73540 | 35880 ft | 479 kts | 50° |
| 2026-04-28 04:32 | 36.15976 | -8.67284 | 35888 ft | 479 kts | 50° |
| 2026-04-28 04:32 | 36.20317 | -8.61019 | 35890 ft | 479 kts | 50° |
| 2026-04-28 04:33 | 36.24625 | -8.54784 | 35893 ft | 480 kts | 50° |
| 2026-04-28 04:33 | 36.28965 | -8.48506 | 35900 ft | 480 kts | 50° |
| 2026-04-28 04:34 | 36.33296 | -8.42216 | 35890 ft | 480 kts | 50° |
| 2026-04-28 04:34 | 36.37627 | -8.35914 | 35900 ft | 480 kts | 50° |
| 2026-04-28 04:35 | 36.41953 | -8.29614 | 35891 ft | 478 kts | 50° |
| 2026-04-28 04:35 | 36.44079 | -8.26510 | 35894 ft | 465 kts | 50° |
| 2026-04-28 04:35 | 36.46159 | -8.23468 | 35892 ft | 459 kts | 50° |
| 2026-04-28 04:36 | 36.50248 | -8.17470 | 35684 ft | 457 kts | 50° |
| 2026-04-28 04:36 | 36.52300 | -8.14457 | 35434 ft | 457 kts | 50° |
| 2026-04-28 04:36 | 36.54353 | -8.11447 | 35186 ft | 456 kts | 50° |
| 2026-04-28 04:36 | 36.56400 | -8.08453 | 34829 ft | 453 kts | 50° |
| 2026-04-28 04:37 | 36.58438 | -8.05469 | 34283 ft | 451 kts | 50° |
| 2026-04-28 04:37 | 36.60466 | -8.02496 | 33701 ft | 450 kts | 50° |
| 2026-04-28 04:37 | 36.62483 | -7.99532 | 33141 ft | 447 kts | 50° |
| 2026-04-28 04:37 | 36.64485 | -7.96584 | 32609 ft | 444 kts | 50° |
| 2026-04-28 04:38 | 36.66470 | -7.93657 | 32082 ft | 441 kts | 50° |
| 2026-04-28 04:38 | 36.68442 | -7.90747 | 31545 ft | 438 kts | 50° |
| 2026-04-28 04:38 | 36.70373 | -7.87895 | 31030 ft | 435 kts | 50° |
| 2026-04-28 04:38 | 36.72312 | -7.85025 | 30516 ft | 432 kts | 50° |
| 2026-04-28 04:39 | 36.74240 | -7.82169 | 30015 ft | 429 kts | 50° |
| 2026-04-28 04:39 | 36.76153 | -7.79333 | 29464 ft | 425 kts | 50° |
| 2026-04-28 04:39 | 36.78047 | -7.76529 | 28989 ft | 420 kts | 50° |
| 2026-04-28 04:39 | 36.79914 | -7.73761 | 28535 ft | 415 kts | 51° |
| 2026-04-28 04:40 | 36.81757 | -7.71023 | 28056 ft | 410 kts | 51° |
| 2026-04-28 04:40 | 36.83579 | -7.68316 | 27602 ft | 405 kts | 50° |
| 2026-04-28 04:40 | 36.85386 | -7.65634 | 27150 ft | 401 kts | 51° |
| 2026-04-28 04:40 | 36.87168 | -7.62984 | 26690 ft | 397 kts | 51° |
| 2026-04-28 04:41 | 36.88937 | -7.60355 | 26253 ft | 393 kts | 50° |
| 2026-04-28 04:41 | 36.90665 | -7.57786 | 25792 ft | 390 kts | 50° |
| 2026-04-28 04:41 | 36.92400 | -7.55201 | 25345 ft | 387 kts | 51° |
| 2026-04-28 04:41 | 36.94124 | -7.52628 | 24872 ft | 385 kts | 51° |
| 2026-04-28 04:42 | 36.95840 | -7.50062 | 24397 ft | 384 kts | 51° |
| 2026-04-28 04:42 | 36.97546 | -7.47507 | 23923 ft | 383 kts | 51° |
| 2026-04-28 04:42 | 36.99250 | -7.44952 | 23429 ft | 382 kts | 51° |
| 2026-04-28 04:42 | 37.00949 | -7.42406 | 22904 ft | 380 kts | 51° |
| 2026-04-28 04:43 | 37.02638 | -7.39874 | 22420 ft | 378 kts | 51° |
| 2026-04-28 04:43 | 37.04317 | -7.37358 | 21955 ft | 375 kts | 51° |
| 2026-04-28 04:43 | 37.05992 | -7.34865 | 21505 ft | 373 kts | 50° |
| 2026-04-28 04:43 | 37.07661 | -7.32393 | 21052 ft | 371 kts | 50° |
| 2026-04-28 04:44 | 37.09322 | -7.29932 | 20606 ft | 369 kts | 50° |
| 2026-04-28 04:44 | 37.10952 | -7.27515 | 20159 ft | 367 kts | 50° |
| 2026-04-28 04:44 | 37.12594 | -7.25075 | 19728 ft | 366 kts | 50° |
| 2026-04-28 04:44 | 37.14231 | -7.22636 | 19288 ft | 364 kts | 50° |
| 2026-04-28 04:45 | 37.15763 | -7.20124 | 18851 ft | 362 kts | 59° |
| 2026-04-28 04:45 | 37.16852 | -7.17286 | 18414 ft | 359 kts | 72° |
| 2026-04-28 04:45 | 37.17487 | -7.14265 | 17969 ft | 357 kts | 78° |
| 2026-04-28 04:45 | 37.18053 | -7.11246 | 17527 ft | 355 kts | 78° |
| 2026-04-28 04:46 | 37.18619 | -7.08242 | 17105 ft | 352 kts | 78° |
| 2026-04-28 04:46 | 37.19181 | -7.05265 | 16706 ft | 350 kts | 78° |
| 2026-04-28 04:46 | 37.19743 | -7.02305 | 16293 ft | 348 kts | 78° |
| 2026-04-28 04:46 | 37.20292 | -6.99398 | 15896 ft | 347 kts | 78° |
| 2026-04-28 04:47 | 37.20846 | -6.96458 | 15505 ft | 345 kts | 78° |
| 2026-04-28 04:47 | 37.21397 | -6.93528 | 15106 ft | 345 kts | 78° |
| 2026-04-28 04:47 | 37.21948 | -6.90605 | 14699 ft | 344 kts | 78° |
| 2026-04-28 04:47 | 37.22496 | -6.87685 | 14312 ft | 343 kts | 78° |
| 2026-04-28 04:48 | 37.23042 | -6.84768 | 13915 ft | 343 kts | 78° |
| 2026-04-28 04:48 | 37.23586 | -6.81854 | 13493 ft | 343 kts | 78° |
| 2026-04-28 04:48 | 37.24128 | -6.78939 | 13077 ft | 342 kts | 78° |
| 2026-04-28 04:48 | 37.24666 | -6.76044 | 12670 ft | 340 kts | 78° |
| 2026-04-28 04:49 | 37.25203 | -6.73162 | 12259 ft | 338 kts | 78° |
| 2026-04-28 04:49 | 37.25735 | -6.70295 | 11849 ft | 337 kts | 78° |
| 2026-04-28 04:49 | 37.26264 | -6.67440 | 11443 ft | 335 kts | 78° |
| 2026-04-28 04:49 | 37.26898 | -6.64620 | 10932 ft | 334 kts | 72° |
| 2026-04-28 04:50 | 37.27623 | -6.61949 | 10598 ft | 318 kts | 71° |
| 2026-04-28 04:50 | 37.28354 | -6.59390 | 10159 ft | 308 kts | 71° |
| 2026-04-28 04:50 | 37.29079 | -6.56887 | 9644 ft | 302 kts | 71° |
| 2026-04-28 04:50 | 37.29783 | -6.54454 | 9217 ft | 291 kts | 71° |
| 2026-04-28 04:51 | 37.30459 | -6.52097 | 8810 ft | 281 kts | 71° |
| 2026-04-28 04:51 | 37.31106 | -6.49828 | 8426 ft | 271 kts | 72° |
| 2026-04-28 04:51 | 37.31728 | -6.47632 | 8054 ft | 266 kts | 72° |
| 2026-04-28 04:51 | 37.32345 | -6.45442 | 7669 ft | 267 kts | 73° |
| 2026-04-28 04:52 | 37.32964 | -6.43238 | 7288 ft | 267 kts | 73° |
| 2026-04-28 04:52 | 37.33583 | -6.41030 | 6887 ft | 268 kts | 74° |
| 2026-04-28 04:52 | 37.34204 | -6.38817 | 6489 ft | 269 kts | 74° |
| 2026-04-28 04:52 | 37.34828 | -6.36593 | 6065 ft | 270 kts | 74° |
| 2026-04-28 04:53 | 37.35448 | -6.34380 | 5733 ft | 267 kts | 73° |
| 2026-04-28 04:53 | 37.36055 | -6.32212 | 5344 ft | 266 kts | 73° |
| 2026-04-28 04:53 | 37.36668 | -6.30015 | 4926 ft | 267 kts | 72° |
| 2026-04-28 04:53 | 37.37282 | -6.27814 | 4499 ft | 267 kts | 72° |
| 2026-04-28 04:54 | 37.37894 | -6.25616 | 4068 ft | 267 kts | 72° |
| 2026-04-28 04:54 | 37.38507 | -6.23416 | 3638 ft | 266 kts | 71° |
| 2026-04-28 04:54 | 37.39117 | -6.21221 | 3278 ft | 264 kts | 71° |
| 2026-04-28 04:54 | 37.39704 | -6.19109 | 3218 ft | 249 kts | 71° |
| 2026-04-28 04:55 | 37.40261 | -6.17108 | 3130 ft | 236 kts | 71° |
| 2026-04-28 04:55 | 37.40793 | -6.15199 | 3030 ft | 227 kts | 71° |
| 2026-04-28 04:55 | 37.41304 | -6.13362 | 2927 ft | 218 kts | 70° |
| 2026-04-28 04:55 | 37.41696 | -6.11565 | 2832 ft | 209 kts | 86° |
| 2026-04-28 04:56 | 37.41722 | -6.09782 | 2781 ft | 196 kts | 90° |
| 2026-04-28 04:56 | 37.41717 | -6.08118 | 2644 ft | 186 kts | 89° |
| 2026-04-28 04:56 | 37.41720 | -6.06511 | 2436 ft | 182 kts | 89° |
| 2026-04-28 04:56 | 37.41725 | -6.05461 | 2294 ft | 180 kts | 89° |
| 2026-04-28 04:57 | 37.41734 | -6.03441 | 1985 ft | 166 kts | 88° |
| 2026-04-28 04:57 | 37.41740 | -6.02043 | 1775 ft | 158 kts | 89° |
| 2026-04-28 04:57 | 37.41745 | -6.01123 | 1638 ft | 154 kts | 89° |
| 2026-04-28 04:57 | 37.41753 | -5.99361 | 1368 ft | 151 kts | 88° |
| 2026-04-28 04:58 | 37.41757 | -5.98470 | 1232 ft | 150 kts | 88° |
| 2026-04-28 04:58 | 37.41765 | -5.96734 | 971 ft | 149 kts | 88° |
| 2026-04-28 04:58 | 37.41768 | -5.95871 | 842 ft | 149 kts | 88° |
| 2026-04-28 04:58 | 37.41774 | -5.94573 | 650 ft | 148 kts | 88° |
| 2026-04-28 04:59 | 37.41779 | -5.93285 | 458 ft | 147 kts | 88° |
| 2026-04-28 04:59 | 37.41783 | -5.92007 | 267 ft | 146 kts | 89° |
| 2026-04-28 04:59 | 37.41790 | -5.90740 | 97 ft | 140 kts | 89° |
| 2026-04-28 04:59 | 37.41793 | -5.89710 | 98 ft | 93 kts | 90° |
| 2026-04-28 05:00 | 37.41795 | -5.89090 | 101 ft | 57 kts | 89° |
| 2026-04-28 05:00 | 37.41804 | -5.88810 | 104 ft | 14 kts | 64° |
| 2026-04-28 05:00 | 37.41894 | -5.88765 | 102 ft | 15 kts | 11° |
| 2026-04-28 05:00 | 37.41949 | -5.88753 | 103 ft | 3 kts | 8° |
| 2026-04-28 05:01 | 37.41972 | -5.88749 | 103 ft | 5 kts | 5° |
| 2026-04-28 05:01 | 37.41985 | -5.88809 | 102 ft | 10 kts | 270° |
| 2026-04-28 05:01 | 37.41984 | -5.88895 | 102 ft | 10 kts | 269° |
| 2026-04-28 05:01 | 37.41984 | -5.88976 | 101 ft | 9 kts | 270° |
| 2026-04-28 05:02 | 37.41984 | -5.89075 | 101 ft | 14 kts | 269° |
| 2026-04-28 05:02 | 37.41983 | -5.89188 | 100 ft | 13 kts | 270° |
| 2026-04-28 05:02 | 37.41983 | -5.89304 | 99 ft | 9 kts | 270° |
| 2026-04-28 05:02 | 37.41998 | -5.89372 | 100 ft | 9 kts | 307° |
| 2026-04-28 05:03 | 37.42046 | -5.89436 | 98 ft | 11 kts | 313° |
| 2026-04-28 05:03 | 37.42095 | -5.89502 | 98 ft | 11 kts | 314° |
| 2026-04-28 05:03 | 37.42154 | -5.89578 | 96 ft | 14 kts | 314° |
| 2026-04-28 05:03 | 37.42218 | -5.89660 | 94 ft | 13 kts | 314° |
| 2026-04-28 05:04 | 37.42264 | -5.89730 | 94 ft | 9 kts | 283° |
| 2026-04-28 05:04 | 37.42230 | -5.89800 | 94 ft | 11 kts | 226° |
| 2026-04-28 05:04 | 37.42173 | -5.89871 | 94 ft | 12 kts | 224° |
| 2026-04-28 05:04 | 37.42146 | -5.89931 | 94 ft | 6 kts | 296° |
| 2026-04-28 05:05 | 37.42177 | -5.89973 | 94 ft | 4 kts | 315° |
| 2026-04-28 05:05 | 37.42186 | -5.89983 | 96 ft | 0 kts | 314° |